Time;durP1;ratioP1;P1;durP2;ratioP2;P2;SDS_P1;SDS_P2;PMS_P1;PMS_P2;Temp;Humidity;BMP_temperature;BMP_pressure;BME280_temperature;BME280_humidity;BME280_pressure;Samples;Min_cycle;Max_cycle;Signal;HPM_P1;HPM_P2
2022/08/07 06:31:59;;;;;;;6.23;2.60;;;25.30;63.90;;;;;;4993663;28;20448;-84
2022/08/07 06:34:26;;;;;;;3.93;2.50;;;25.10;63.80;;;;;;4977038;28;20806;-82
2022/08/07 06:36:54;;;;;;;5.10;3.67;;;24.90;63.90;;;;;;4976255;28;20564;-82
2022/08/07 06:39:21;;;;;;;5.90;2.37;;;24.80;63.90;;;;;;4974910;28;21266;-83
2022/08/07 06:41:54;;;;;;;4.13;1.90;;;24.80;63.60;;;;;;4974408;28;20456;-82
2022/08/07 06:44:22;;;;;;;5.60;2.83;;;24.80;63.30;;;;;;4975381;28;20488;-88
2022/08/07 06:46:49;;;;;;;2.00;1.80;;;24.80;63.20;;;;;;4975983;28;20449;-83
2022/08/07 06:49:17;;;;;;;3.13;2.73;;;24.70;63.40;;;;;;4975672;28;20460;-82
2022/08/07 06:51:48;;;;;;;2.47;2.10;;;24.60;63.60;;;;;;4975512;28;21036;-83
2022/08/07 06:54:18;;;;;;;2.63;1.87;;;24.50;64.10;;;;;;4976114;28;20536;-83
2022/08/07 06:56:46;;;;;;;4.23;2.00;;;24.50;63.70;;;;;;4976857;28;20991;-86
2022/08/07 06:59:18;;;;;;;1.80;1.53;;;24.40;63.90;;;;;;4976863;28;20449;-87
2022/08/07 07:01:46;;;;;;;2.40;2.20;;;24.50;63.90;;;;;;4976813;28;20461;-82
2022/08/07 07:04:14;;;;;;;3.60;2.10;;;24.50;63.80;;;;;;4976541;28;20552;-95
2022/08/07 07:06:43;;;;;;;1.87;1.63;;;24.40;63.90;;;;;;4976135;28;20492;-83
2022/08/07 07:09:21;;;;;;;2.07;1.67;;;24.40;64.20;;;;;;4976421;28;20488;-80
2022/08/07 07:11:59;;;;;;;1.37;1.27;;;24.40;63.80;;;;;;4976493;28;20976;-79
2022/08/07 07:14:30;;;;;;;1.93;1.40;;;24.50;63.50;;;;;;4976291;28;20488;-77
2022/08/07 07:17:03;;;;;;;2.40;1.60;;;24.70;63.70;;;;;;4976423;28;20516;-80
2022/08/07 07:19:35;;;;;;;2.13;1.47;;;24.70;63.60;;;;;;4976248;28;20528;-78
2022/08/07 07:22:04;;;;;;;4.23;1.50;;;24.80;63.50;;;;;;4976233;28;20960;-80
2022/08/07 07:24:31;;;;;;;1.87;1.67;;;24.80;63.50;;;;;;4976029;28;20536;-80
2022/08/07 07:27:03;;;;;;;2.20;1.60;;;24.90;63.60;;;;;;4976247;28;20925;-86
2022/08/07 07:29:35;;;;;;;3.83;2.00;;;25.00;63.60;;;;;;4976094;28;20446;-79
2022/08/07 07:32:05;;;;;;;2.30;1.70;;;25.00;63.40;;;;;;4976860;28;20452;-80
2022/08/07 07:34:34;;;;;;;3.20;1.60;;;25.00;63.10;;;;;;4995373;28;20892;-80
2022/08/07 07:37:04;;;;;;;2.50;1.40;;;25.10;64.10;;;;;;4995094;28;20516;-79
2022/08/07 07:39:32;;;;;;;1.40;1.23;;;25.10;63.30;;;;;;4992219;28;20448;-77
2022/08/07 07:42:01;;;;;;;1.67;1.30;;;25.10;63.30;;;;;;4996091;28;20441;-80
2022/08/07 07:44:31;;;;;;;1.23;1.13;;;25.20;63.00;;;;;;4997172;28;20441;-81
2022/08/07 07:47:00;;;;;;;1.80;1.60;;;25.20;62.70;;;;;;4997523;28;20495;-84
2022/08/07 07:49:30;;;;;;;2.47;2.23;;;25.20;62.90;;;;;;4999548;28;20535;-81
2022/08/07 07:51:58;;;;;;;2.00;1.20;;;25.20;62.70;;;;;;4996065;28;20433;-83
2022/08/07 07:54:27;;;;;;;2.03;1.60;;;25.30;62.80;;;;;;4995070;28;20524;-82
2022/08/07 07:56:56;;;;;;;2.83;1.50;;;25.30;63.00;;;;;;4995641;28;21061;-82
2022/08/07 07:59:25;;;;;;;2.13;1.40;;;25.40;63.30;;;;;;4994978;28;20940;-89
2022/08/07 08:01:53;;;;;;;1.57;1.30;;;25.40;63.30;;;;;;4995316;28;20444;-81
2022/08/07 08:04:22;;;;;;;2.53;1.70;;;25.40;63.10;;;;;;4994832;28;20464;-82
2022/08/07 08:06:50;;;;;;;1.97;1.57;;;25.40;64.50;;;;;;4994927;28;20544;-82
2022/08/07 08:09:20;;;;;;;2.10;1.77;;;25.40;63.90;;;;;;4995285;28;20991;-82
2022/08/07 08:11:49;;;;;;;1.73;1.60;;;25.50;63.60;;;;;;4993626;28;20447;-82
2022/08/07 08:14:16;;;;;;;1.70;1.40;;;25.50;63.30;;;;;;4994870;28;20535;-82
2022/08/07 08:16:45;;;;;;;2.90;1.50;;;25.50;63.40;;;;;;4994689;28;20519;-82
2022/08/07 08:19:16;;;;;;;1.67;1.30;;;25.50;63.30;;;;;;4994422;28;20444;-82
2022/08/07 08:27:26;;;;;;;1.83;1.30;;;25.60;64.50;;;;;;4994837;28;20436;-82
2022/08/07 08:29:57;;;;;;;4.13;1.20;;;25.60;64.60;;;;;;4994585;28;20950;-82
2022/08/07 08:32:25;;;;;;;1.30;1.10;;;25.60;65.40;;;;;;4994307;28;21014;-82
2022/08/07 08:34:54;;;;;;;1.63;1.07;;;25.60;64.60;;;;;;4994486;28;20543;-82
2022/08/07 08:37:22;;;;;;;1.97;1.37;;;25.60;64.60;;;;;;4994483;28;20578;-82
2022/08/07 08:39:51;;;;;;;1.40;1.30;;;25.60;64.60;;;;;;4994386;28;20539;-82
2022/08/07 08:42:26;;;;;;;1.47;1.27;;;25.70;64.60;;;;;;4975460;28;20773;-82
2022/08/07 08:45:02;;;;;;;2.00;1.30;;;25.70;64.60;;;;;;4974232;28;20480;-82
2022/08/07 08:47:37;;;;;;;2.90;1.30;;;25.70;64.60;;;;;;4974907;28;20488;-82
2022/08/07 08:50:13;;;;;;;2.37;1.13;;;25.70;64.70;;;;;;4974546;28;21323;-79
2022/08/07 08:52:46;;;;;;;1.60;1.40;;;25.70;64.60;;;;;;4974666;28;20445;-78
2022/08/07 08:55:21;;;;;;;1.77;1.57;;;25.70;65.60;;;;;;4974488;28;20441;-78
2022/08/07 08:57:58;;;;;;;2.60;1.17;;;25.70;64.80;;;;;;4974620;28;20572;-79
2022/08/07 09:00:30;;;;;;;1.20;1.10;;;25.70;64.70;;;;;;4974817;28;20442;-79
2022/08/07 09:03:00;;;;;;;3.00;1.50;;;25.80;64.70;;;;;;4974637;28;20473;-79
2022/08/07 09:05:37;;;;;;;1.20;1.00;;;25.80;64.60;;;;;;4974461;28;20868;-79
2022/08/07 09:08:19;;;;;;;1.20;1.10;;;25.80;64.60;;;;;;4974389;28;20449;-78
2022/08/07 09:10:57;;;;;;;1.83;1.30;;;25.80;64.60;;;;;;4974517;28;20445;-78
2022/08/07 09:13:37;;;;;;;1.17;1.00;;;25.80;64.50;;;;;;4974550;28;20944;-80
2022/08/07 09:16:08;;;;;;;1.60;0.93;;;25.80;64.50;;;;;;4974311;28;20441;-78
2022/08/07 09:18:56;;;;;;;1.17;1.07;;;25.80;64.60;;;;;;4973649;28;20557;-79
2022/08/07 09:21:32;;;;;;;4.60;1.17;;;25.80;64.50;;;;;;4973932;28;20453;-78
2022/08/07 09:24:08;;;;;;;1.20;1.10;;;25.80;64.50;;;;;;4975410;28;20531;-78
2022/08/07 09:26:45;;;;;;;1.40;1.00;;;25.80;64.50;;;;;;4978302;28;20485;-78
2022/08/07 09:29:33;;;;;;;1.67;1.20;;;25.80;64.60;;;;;;4978688;28;20555;-83
2022/08/07 09:32:22;;;;;;;1.93;1.20;;;25.80;64.60;;;;;;4978960;28;20532;-83
2022/08/07 09:34:58;;;;;;;4.60;1.27;;;25.80;65.00;;;;;;4997615;28;20460;-91
2022/08/07 09:37:34;;;;;;;1.80;1.10;;;25.80;65.00;;;;;;4997606;28;20583;-83
2022/08/07 09:40:05;;;;;;;1.50;1.40;;;25.80;65.20;;;;;;4997826;28;20451;-83
2022/08/07 09:42:43;;;;;;;1.73;1.10;;;25.80;65.20;;;;;;4997879;28;20440;-83
2022/08/07 09:45:18;;;;;;;1.13;1.00;;;25.80;65.20;;;;;;4997784;28;20468;-82
2022/08/07 09:47:54;;;;;;;1.23;1.10;;;25.80;65.20;;;;;;4997767;28;20987;-84
2022/08/07 09:50:31;;;;;;;1.53;1.17;;;25.80;65.30;;;;;;4997786;28;20547;-83
2022/08/07 09:53:01;;;;;;;1.63;1.13;;;25.80;65.50;;;;;;4997663;28;20440;-82
2022/08/07 09:55:47;;;;;;;1.63;1.30;;;25.80;65.50;;;;;;4997460;28;20539;-83
2022/08/07 09:58:48;;;;;;;2.50;1.20;;;25.80;65.60;;;;;;4997034;28;20490;-85
2022/08/07 10:01:32;;;;;;;2.07;1.10;;;25.80;65.50;;;;;;4995907;28;20482;-84
2022/08/07 10:04:27;;;;;;;1.10;0.90;;;25.80;65.70;;;;;;4997569;28;20456;-84
2022/08/07 10:07:32;;;;;;;1.20;1.10;;;25.80;65.70;;;;;;4997368;28;20520;-84
2022/08/07 10:10:09;;;;;;;1.30;1.13;;;25.80;65.90;;;;;;4997406;28;20539;-85
2022/08/07 10:13:06;;;;;;;1.30;1.17;;;25.80;66.00;;;;;;4997179;28;20534;-85
2022/08/07 10:15:49;;;;;;;2.80;1.30;;;25.80;65.90;;;;;;4997090;28;20516;-85
2022/08/07 10:18:46;;;;;;;1.20;0.97;;;25.80;66.00;;;;;;4996933;28;20490;-85
2022/08/07 10:21:26;;;;;;;1.40;1.00;;;25.80;66.00;;;;;;4965424;28;20454;-84
2022/08/07 10:24:13;;;;;;;2.97;1.07;;;25.80;66.10;;;;;;4977752;28;20515;-85
2022/08/07 10:27:01;;;;;;;1.30;1.17;;;25.80;66.10;;;;;;4991843;28;20444;-85
2022/08/07 10:29:52;;;;;;;1.23;1.10;;;25.80;67.00;;;;;;4996783;28;20519;-83
2022/08/07 10:32:32;;;;;;;1.37;0.80;;;25.80;66.10;;;;;;4977043;28;20479;-85
2022/08/07 10:35:15;;;;;;;1.10;0.90;;;25.80;66.10;;;;;;4976828;28;20572;-85
2022/08/07 10:37:55;;;;;;;1.40;1.00;;;25.80;66.10;;;;;;4977172;28;20488;-81
2022/08/07 10:40:28;;;;;;;1.30;1.20;;;25.90;66.20;;;;;;4977260;28;20511;-83
2022/08/07 10:43:01;;;;;;;1.10;0.90;;;25.90;66.20;;;;;;5014509;28;20534;-82
2022/08/07 10:45:35;;;;;;;1.80;1.20;;;25.90;66.20;;;;;;5017325;28;20443;-81
2022/08/07 10:48:16;;;;;;;1.17;1.07;;;25.90;66.20;;;;;;5017424;28;20519;-81
2022/08/07 10:50:47;;;;;;;1.20;1.10;;;25.90;66.10;;;;;;5017475;28;20444;-95
2022/08/07 10:53:25;;;;;;;1.20;1.00;;;25.90;66.20;;;;;;5016913;28;20526;-81
2022/08/07 10:56:00;;;;;;;1.40;1.10;;;25.90;66.20;;;;;;5017022;28;21021;-82
2022/08/07 10:58:43;;;;;;;1.30;0.90;;;25.90;66.20;;;;;;5016924;28;20518;-94
2022/08/07 11:01:37;;;;;;;1.20;1.00;;;25.90;66.20;;;;;;5017357;28;20922;-82
2022/08/07 11:04:11;;;;;;;4.10;1.20;;;25.90;66.10;;;;;;4994753;28;20550;-91
2022/08/07 11:06:50;;;;;;;1.20;1.10;;;25.90;66.20;;;;;;5017060;28;20439;-92
2022/08/07 11:09:22;;;;;;;1.20;1.00;;;25.90;67.10;;;;;;5017253;28;21008;-95
2022/08/07 11:11:58;;;;;;;2.20;0.80;;;25.90;66.20;;;;;;5016545;28;20522;-81
2022/08/07 11:14:33;;;;;;;1.10;0.93;;;25.90;66.10;;;;;;5016977;28;20467;-90
2022/08/07 11:17:04;;;;;;;1.20;0.90;;;25.90;66.20;;;;;;5016628;28;20481;-84
2022/08/07 11:19:47;;;;;;;1.07;0.97;;;25.90;66.10;;;;;;5016798;28;20475;-89
2022/08/07 11:22:24;;;;;;;1.10;0.93;;;25.90;66.10;;;;;;5016369;28;20444;-95
2022/08/07 11:24:58;;;;;;;1.10;0.90;;;25.90;66.10;;;;;;5017179;28;20530;-95
2022/08/07 11:27:31;;;;;;;1.23;1.10;;;25.90;66.10;;;;;;5009225;28;20773;-81
2022/08/07 11:30:04;;;;;;;1.20;1.00;;;25.90;66.10;;;;;;4997166;28;20491;-81
2022/08/07 11:32:37;;;;;;;1.10;0.90;;;26.00;66.10;;;;;;4996656;28;20895;-94
2022/08/07 11:35:09;;;;;;;1.17;0.80;;;26.00;66.10;;;;;;4997360;28;20456;-94
2022/08/07 11:38:01;;;;;;;1.37;0.80;;;26.00;66.10;;;;;;4996805;28;20486;-88
2022/08/07 11:40:39;;;;;;;1.13;0.87;;;26.00;66.00;;;;;;4996053;28;21003;-85
2022/08/07 11:43:16;;;;;;;2.80;1.00;;;26.00;66.00;;;;;;4995757;28;20443;-90
2022/08/07 11:46:05;;;;;;;2.27;0.80;;;26.00;66.00;;;;;;4995429;28;20519;-90
2022/08/07 11:48:51;;;;;;;1.40;1.00;;;26.00;66.00;;;;;;4995331;28;20943;-88
2022/08/07 11:51:38;;;;;;;1.23;0.80;;;26.00;66.00;;;;;;4995574;28;20483;-85
2022/08/07 11:54:36;;;;;;;1.20;1.10;;;26.00;66.00;;;;;;4995775;28;20459;-85
2022/08/07 11:57:12;;;;;;;1.00;0.80;;;26.00;66.00;;;;;;4995428;28;20595;-91
2022/08/07 12:00:00;;;;;;;1.20;0.90;;;25.90;66.10;;;;;;4995128;28;20455;-88
2022/08/07 12:02:46;;;;;;;1.10;0.90;;;26.00;66.10;;;;;;4995436;28;20849;-84
2022/08/07 12:05:20;;;;;;;1.97;0.87;;;25.90;66.10;;;;;;4994987;28;20461;-88
2022/08/07 12:07:54;;;;;;;1.00;0.80;;;25.90;66.10;;;;;;4995334;28;20440;-84
2022/08/07 12:10:30;;;;;;;1.10;0.80;;;26.00;66.90;;;;;;4977582;28;20823;-86
2022/08/07 12:13:03;;;;;;;2.80;1.20;;;26.00;66.10;;;;;;4994928;28;20471;-86
2022/08/07 12:15:34;;;;;;;2.40;1.00;;;26.00;66.10;;;;;;4995000;28;20472;-87
2022/08/07 12:18:05;;;;;;;1.00;0.90;;;26.00;66.20;;;;;;4975316;28;20603;-86
2022/08/07 12:20:36;;;;;;;1.17;0.90;;;26.00;66.20;;;;;;4975799;28;20797;-87
2022/08/07 12:23:35;;;;;;;1.07;0.80;;;26.00;66.10;;;;;;4975511;28;20449;-87
2022/08/07 12:26:09;;;;;;;2.70;1.20;;;26.00;66.10;;;;;;4974932;28;20453;-87
2022/08/07 12:28:46;;;;;;;1.30;1.00;;;26.00;66.30;;;;;;4975523;28;20539;-87
2022/08/07 12:31:19;;;;;;;1.53;0.90;;;26.00;66.30;;;;;;4993253;28;20511;-87
2022/08/07 12:33:48;;;;;;;1.33;1.20;;;26.00;67.10;;;;;;4995470;28;20527;-86
2022/08/07 12:36:16;;;;;;;1.27;0.90;;;26.00;66.40;;;;;;4994938;28;20449;-89
2022/08/07 12:38:45;;;;;;;2.33;1.40;;;26.00;66.40;;;;;;4994880;28;20490;-88
2022/08/07 12:41:15;;;;;;;1.47;0.97;;;26.00;66.40;;;;;;4994617;28;20842;-88
2022/08/07 12:43:44;;;;;;;1.17;0.90;;;26.00;66.40;;;;;;4994420;28;20481;-88
2022/08/07 12:46:25;;;;;;;1.97;1.17;;;26.00;66.50;;;;;;4994399;28;20452;-88
2022/08/07 12:49:01;;;;;;;1.40;0.90;;;26.00;66.40;;;;;;4994621;28;20526;-90
2022/08/07 12:51:36;;;;;;;2.27;0.87;;;26.00;66.40;;;;;;4994741;28;20444;-88
2022/08/07 12:54:14;;;;;;;2.50;1.10;;;26.00;66.40;;;;;;4994440;28;20980;-88
2022/08/07 12:56:45;;;;;;;1.97;0.90;;;26.00;66.40;;;;;;4994474;28;20455;-87
2022/08/07 12:59:18;;;;;;;1.07;0.80;;;26.00;66.40;;;;;;4994560;28;20484;-89
2022/08/07 13:01:56;;;;;;;3.63;1.20;;;26.00;66.40;;;;;;4994260;28;20483;-91
2022/08/07 13:04:40;;;;;;;1.20;1.00;;;26.00;66.40;;;;;;4994261;28;20511;-88
2022/08/07 13:07:39;;;;;;;2.50;0.90;;;26.00;66.40;;;;;;4994258;28;20450;-89
2022/08/07 13:10:23;;;;;;;1.10;0.90;;;26.00;67.20;;;;;;4994493;28;20464;-89
2022/08/07 13:13:13;;;;;;;1.60;1.00;;;26.00;66.30;;;;;;4994511;28;20819;-88
2022/08/07 13:15:50;;;;;;;2.23;1.23;;;26.00;66.30;;;;;;4994286;28;20468;-89
2022/08/07 13:18:25;;;;;;;1.50;0.97;;;26.00;66.20;;;;;;4994453;28;20480;-91
2022/08/07 13:20:58;;;;;;;2.27;1.00;;;26.00;66.20;;;;;;4994019;28;20443;-89
2022/08/07 13:23:32;;;;;;;4.93;1.00;;;26.00;66.20;;;;;;4994571;28;20444;-89
2022/08/07 13:26:05;;;;;;;1.17;1.00;;;26.00;66.20;;;;;;4994492;28;20464;-89
2022/08/07 13:28:39;;;;;;;1.40;1.00;;;26.00;66.20;;;;;;5007425;28;20504;-89
2022/08/07 13:31:13;;;;;;;2.53;1.00;;;26.00;66.10;;;;;;5009774;28;20935;-89
2022/08/07 13:33:48;;;;;;;2.83;0.87;;;26.00;67.00;;;;;;5010657;28;20473;-87
2022/08/07 13:36:22;;;;;;;5.87;1.10;;;26.00;66.10;;;;;;4994101;28;20519;-88
2022/08/07 13:38:56;;;;;;;1.30;1.00;;;26.10;66.20;;;;;;4995324;28;20492;-88
2022/08/07 13:41:34;;;;;;;1.73;0.93;;;26.10;66.20;;;;;;4995278;28;20448;-88
2022/08/07 13:44:06;;;;;;;1.30;0.80;;;26.00;66.10;;;;;;4994678;28;20436;-88
2022/08/07 13:46:36;;;;;;;1.67;0.90;;;26.10;66.20;;;;;;4994665;28;20908;-89
2022/08/07 13:49:05;;;;;;;2.03;1.07;;;26.10;66.20;;;;;;4994484;28;20853;-89
2022/08/07 13:51:33;;;;;;;1.50;0.90;;;26.10;66.10;;;;;;4993865;28;20874;-89
2022/08/07 13:54:04;;;;;;;1.20;1.00;;;26.00;66.00;;;;;;4993787;28;20445;-89
2022/08/07 13:56:34;;;;;;;1.40;0.73;;;26.10;66.10;;;;;;4993835;28;20928;-89
2022/08/07 13:59:04;;;;;;;1.10;0.63;;;26.10;66.10;;;;;;4993722;28;20571;-88
2022/08/07 14:01:33;;;;;;;1.00;0.80;;;26.00;66.00;;;;;;4993787;28;20448;-88
2022/08/07 14:04:08;;;;;;;1.60;0.90;;;26.00;65.90;;;;;;4993538;28;20504;-88
2022/08/07 14:06:37;;;;;;;1.00;0.70;;;26.10;66.10;;;;;;4993782;28;20451;-88
2022/08/07 14:09:05;;;;;;;2.50;0.80;;;26.10;66.10;;;;;;4994093;28;20799;-88
2022/08/07 14:11:36;;;;;;;2.30;0.80;;;26.10;66.10;;;;;;4997150;28;20449;-88
2022/08/07 14:14:10;;;;;;;1.80;0.90;;;26.10;66.10;;;;;;4997877;28;20453;-88
2022/08/07 14:16:41;;;;;;;1.27;0.80;;;26.10;66.10;;;;;;4997426;28;20446;-88
2022/08/07 14:19:17;;;;;;;1.30;0.90;;;26.10;66.10;;;;;;4997133;28;20575;-88
2022/08/07 14:21:47;;;;;;;1.20;0.90;;;26.10;66.10;;;;;;4997259;28;20444;-88
2022/08/07 14:24:22;;;;;;;2.30;0.90;;;26.10;66.10;;;;;;4997049;28;20942;-88
2022/08/07 14:26:51;;;;;;;0.97;0.70;;;26.10;66.10;;;;;;4997584;28;20908;-88
2022/08/07 14:29:22;;;;;;;1.10;0.80;;;26.10;66.10;;;;;;4996899;28;20518;-91
2022/08/07 14:31:50;;;;;;;0.90;0.60;;;26.10;66.10;;;;;;4997158;28;20447;-88
2022/08/07 14:34:19;;;;;;;2.50;0.77;;;26.10;66.10;;;;;;4996627;28;20527;-88
2022/08/07 14:36:47;;;;;;;1.50;0.80;;;26.10;66.20;;;;;;4996986;28;20440;-88
2022/08/07 14:39:14;;;;;;;1.43;0.90;;;26.10;66.20;;;;;;4997078;28;20574;-88
2022/08/07 14:41:44;;;;;;;1.30;0.80;;;26.10;66.20;;;;;;4996813;28;20440;-87
2022/08/07 14:44:12;;;;;;;1.23;0.80;;;26.10;66.20;;;;;;4996523;28;20448;-87
2022/08/07 14:46:42;;;;;;;1.43;0.80;;;26.10;66.20;;;;;;4996866;28;20449;-87
2022/08/07 14:49:10;;;;;;;1.00;0.80;;;26.10;66.20;;;;;;4996659;28;20551;-90
2022/08/07 14:51:42;;;;;;;1.00;0.70;;;26.10;66.20;;;;;;4996821;28;20488;-87
2022/08/07 14:54:14;;;;;;;1.00;0.77;;;26.10;66.20;;;;;;4996534;28;20468;-88
2022/08/07 14:56:43;;;;;;;1.00;0.70;;;26.10;66.20;;;;;;4997199;28;20472;-88
2022/08/07 14:59:13;;;;;;;1.13;0.90;;;26.10;66.20;;;;;;4996650;28;20831;-87
2022/08/07 15:01:42;;;;;;;0.93;0.70;;;26.10;66.10;;;;;;4996597;28;20491;-88
2022/08/07 15:04:11;;;;;;;1.00;0.70;;;26.10;66.10;;;;;;4996180;28;20875;-87
2022/08/07 15:06:39;;;;;;;1.87;0.73;;;26.10;66.20;;;;;;4996631;28;20552;-88
2022/08/07 15:09:11;;;;;;;1.00;0.70;;;26.10;66.20;;;;;;4996626;28;20456;-88
2022/08/07 15:11:44;;;;;;;0.97;0.77;;;26.10;66.20;;;;;;4996517;28;20530;-88
2022/08/07 15:14:19;;;;;;;1.10;0.80;;;26.10;66.10;;;;;;4997022;28;20544;-88
2022/08/07 15:16:52;;;;;;;1.10;0.80;;;26.10;66.10;;;;;;4996431;28;20475;-88
2022/08/07 15:19:24;;;;;;;0.90;0.70;;;26.10;66.10;;;;;;4996288;28;20524;-88
2022/08/07 15:21:57;;;;;;;1.03;0.80;;;26.10;66.10;;;;;;4995476;28;20433;-89
2022/08/07 15:24:29;;;;;;;1.00;0.80;;;26.10;66.10;;;;;;4996229;28;20443;-89
2022/08/07 15:27:06;;;;;;;1.40;0.70;;;26.10;66.10;;;;;;4995926;28;20511;-89
2022/08/07 15:29:36;;;;;;;1.00;0.70;;;26.10;66.10;;;;;;4995992;28;20461;-89
2022/08/07 15:32:06;;;;;;;1.10;0.80;;;26.10;66.10;;;;;;4995996;28;20531;-88
2022/08/07 15:34:36;;;;;;;0.90;0.63;;;26.10;66.90;;;;;;4995716;28;21073;-89
2022/08/07 15:37:06;;;;;;;1.10;0.80;;;26.10;66.10;;;;;;4995999;28;20535;-90
2022/08/07 15:39:39;;;;;;;1.90;0.80;;;26.10;66.00;;;;;;4995692;28;20500;-89
2022/08/07 15:42:07;;;;;;;1.10;0.70;;;26.10;66.00;;;;;;4996064;28;20447;-89
2022/08/07 15:44:46;;;;;;;1.27;0.70;;;26.10;66.00;;;;;;4995857;28;20441;-89
2022/08/07 15:47:15;;;;;;;1.00;0.80;;;26.10;66.00;;;;;;4995794;28;20447;-89
2022/08/07 15:49:45;;;;;;;1.00;0.70;;;26.10;66.00;;;;;;4995699;28;20435;-89
2022/08/07 15:52:13;;;;;;;0.90;0.67;;;26.10;66.00;;;;;;4995595;28;20560;-88
2022/08/07 15:54:44;;;;;;;0.90;0.70;;;26.10;66.90;;;;;;4995600;28;20551;-87
2022/08/07 15:57:14;;;;;;;0.90;0.70;;;26.10;66.00;;;;;;4995667;28;20456;-88
2022/08/07 15:59:45;;;;;;;1.30;0.80;;;26.10;66.00;;;;;;4995285;28;20492;-88
2022/08/07 16:02:25;;;;;;;1.07;0.70;;;26.10;66.00;;;;;;4995829;28;20512;-88
2022/08/07 16:04:56;;;;;;;1.00;0.70;;;26.20;66.10;;;;;;4995377;28;20555;-88
2022/08/07 16:07:27;;;;;;;1.00;0.80;;;26.10;66.00;;;;;;4995161;28;20441;-88
2022/08/07 16:10:02;;;;;;;1.53;0.80;;;26.10;66.00;;;;;;4995338;28;20912;-87
2022/08/07 16:12:36;;;;;;;1.00;0.73;;;26.10;66.00;;;;;;4995365;28;20499;-88
2022/08/07 16:15:24;;;;;;;1.83;0.90;;;26.20;66.10;;;;;;4995176;28;20444;-87
2022/08/07 16:18:05;;;;;;;1.00;0.70;;;26.10;66.00;;;;;;4995505;28;20519;-88
2022/08/07 16:20:48;;;;;;;1.00;0.80;;;26.10;66.00;;;;;;4995273;28;20470;-87
2022/08/07 16:23:28;;;;;;;1.10;0.80;;;26.10;66.00;;;;;;4994709;28;20482;-87
2022/08/07 16:26:03;;;;;;;1.00;0.80;;;26.10;66.00;;;;;;4994845;28;20440;-88
2022/08/07 16:28:45;;;;;;;1.30;0.70;;;26.10;66.00;;;;;;4995391;28;20454;-88
2022/08/07 16:31:26;;;;;;;1.10;0.80;;;26.20;66.10;;;;;;4994716;28;20448;-87
2022/08/07 16:34:00;;;;;;;0.90;0.70;;;26.10;65.90;;;;;;4994288;28;20571;-86
2022/08/07 16:36:44;;;;;;;1.20;0.70;;;26.10;66.00;;;;;;4996590;28;20532;-88
2022/08/07 16:39:30;;;;;;;0.90;0.67;;;26.20;66.00;;;;;;4995157;28;20522;-88
2022/08/07 16:42:34;;;;;;;1.00;0.70;;;26.20;66.10;;;;;;4994574;28;20445;-88
2022/08/07 16:45:22;;;;;;;0.90;0.60;;;26.20;66.00;;;;;;4994700;28;20503;-88
2022/08/07 16:48:18;;;;;;;0.97;0.70;;;26.10;66.00;;;;;;4994615;28;20448;-88
2022/08/07 16:51:03;;;;;;;1.30;0.90;;;26.10;65.90;;;;;;4984876;28;20944;-88
2022/08/07 16:53:47;;;;;;;0.90;0.70;;;26.10;66.80;;;;;;4994499;28;20928;-89
2022/08/07 16:56:20;;;;;;;0.90;0.70;;;26.10;66.80;;;;;;4994565;28;20445;-88
2022/08/07 16:59:02;;;;;;;1.00;0.70;;;26.10;65.90;;;;;;4995151;28;20475;-88
2022/08/07 17:01:37;;;;;;;0.90;0.70;;;26.10;65.80;;;;;;4994519;28;20856;-89
2022/08/07 17:04:11;;;;;;;0.90;0.60;;;26.10;65.90;;;;;;4994021;28;20550;-89
2022/08/07 17:06:52;;;;;;;1.10;0.80;;;26.10;65.90;;;;;;4994503;28;20787;-90
2022/08/07 17:09:29;;;;;;;0.90;0.80;;;26.10;65.80;;;;;;4994163;28;20476;-90
2022/08/07 17:12:00;;;;;;;1.00;0.70;;;26.10;65.80;;;;;;4994250;28;20487;-88
2022/08/07 17:14:37;;;;;;;0.90;0.70;;;26.10;65.80;;;;;;4994154;28;20455;-88
2022/08/07 17:17:13;;;;;;;0.90;0.70;;;26.10;65.90;;;;;;4994587;28;20518;-88
2022/08/07 17:19:45;;;;;;;0.90;0.80;;;26.10;65.90;;;;;;4994491;28;20605;-89
2022/08/07 17:22:19;;;;;;;1.40;0.80;;;26.10;65.70;;;;;;4994235;28;20531;-88
2022/08/07 17:25:04;;;;;;;1.20;0.80;;;26.10;65.80;;;;;;4993950;28;20472;-89
2022/08/07 17:27:44;;;;;;;0.90;0.70;;;26.10;65.70;;;;;;4993771;28;20440;-88
2022/08/07 17:30:12;;;;;;;0.90;0.70;;;26.10;65.80;;;;;;4994634;28;20770;-88
2022/08/07 17:33:07;;;;;;;1.00;0.70;;;26.10;65.80;;;;;;4993888;28;20567;-88
2022/08/07 17:35:39;;;;;;;1.00;0.80;;;26.20;65.70;;;;;;4993878;28;20452;-88
2022/08/07 17:38:12;;;;;;;1.00;0.80;;;26.10;65.70;;;;;;4993938;28;20972;-89
2022/08/07 17:40:49;;;;;;;1.50;0.80;;;26.10;65.70;;;;;;4993956;28;20488;-89
2022/08/07 17:43:22;;;;;;;1.00;0.80;;;26.10;65.70;;;;;;4994166;28;20436;-89
2022/08/07 17:45:55;;;;;;;0.90;0.70;;;26.10;65.70;;;;;;4996650;28;20534;-88
2022/08/07 17:48:26;;;;;;;1.00;0.70;;;26.10;65.60;;;;;;4997953;28;20942;-89
2022/08/07 17:51:00;;;;;;;0.90;0.67;;;26.10;65.70;;;;;;4998066;28;20803;-88
2022/08/07 17:53:49;;;;;;;0.93;0.73;;;26.10;65.70;;;;;;4998505;28;20889;-89
2022/08/07 17:56:23;;;;;;;1.10;0.83;;;26.20;65.70;;;;;;4998299;28;20935;-89
2022/08/07 17:59:03;;;;;;;0.90;0.70;;;26.10;66.40;;;;;;5011182;28;20463;-88
2022/08/07 18:01:41;;;;;;;1.10;0.77;;;26.10;65.60;;;;;;5010667;28;20467;-88
2022/08/07 18:04:17;;;;;;;1.00;0.80;;;26.20;65.70;;;;;;5009670;28;20460;-88
2022/08/07 18:06:49;;;;;;;1.00;0.70;;;26.10;65.70;;;;;;4999896;28;20448;-88
2022/08/07 18:09:20;;;;;;;1.00;0.70;;;26.10;65.60;;;;;;4997684;28;20437;-89
2022/08/07 18:11:54;;;;;;;1.00;0.70;;;26.10;65.60;;;;;;4997763;28;20503;-88
2022/08/07 18:14:27;;;;;;;1.00;0.77;;;26.10;65.60;;;;;;4997160;28;20487;-88
2022/08/07 18:16:58;;;;;;;0.90;0.70;;;26.10;65.60;;;;;;4997417;28;20940;-88
2022/08/07 18:19:34;;;;;;;1.10;0.70;;;26.10;65.60;;;;;;4997537;28;20511;-88
2022/08/07 18:22:07;;;;;;;1.57;0.70;;;26.10;65.50;;;;;;4997716;28;20534;-88
2022/08/07 18:24:42;;;;;;;0.90;0.70;;;26.10;65.60;;;;;;4997079;28;20446;-88
2022/08/07 18:27:54;;;;;;;0.90;0.70;;;26.10;65.50;;;;;;4997162;28;20530;-88
2022/08/07 18:30:29;;;;;;;1.20;0.70;;;26.20;65.60;;;;;;4972857;28;20503;-89
2022/08/07 18:33:33;;;;;;;1.00;0.73;;;26.10;65.60;;;;;;4995273;28;20566;-88
2022/08/07 18:36:14;;;;;;;1.10;0.80;;;26.20;65.60;;;;;;4996983;28;20468;-89
2022/08/07 18:38:53;;;;;;;0.90;0.67;;;26.10;65.60;;;;;;4996959;28;20518;-89
2022/08/07 18:41:30;;;;;;;1.00;0.80;;;26.10;65.50;;;;;;4996925;28;20455;-89
2022/08/07 18:44:11;;;;;;;1.00;0.80;;;26.10;65.60;;;;;;4997074;28;20478;-88
2022/08/07 18:46:42;;;;;;;1.10;0.90;;;26.10;65.60;;;;;;4997277;28;20455;-89
2022/08/07 18:49:22;;;;;;;1.00;0.70;;;26.10;65.60;;;;;;4997100;28;20507;-89
2022/08/07 18:51:57;;;;;;;0.93;0.70;;;26.10;65.60;;;;;;4999650;28;20440;-91
2022/08/07 18:54:39;;;;;;;1.10;0.70;;;26.10;65.60;;;;;;4998489;28;20486;-90
2022/08/07 18:57:18;;;;;;;1.00;0.80;;;26.10;65.60;;;;;;4998131;28;20514;-92
2022/08/07 19:00:01;;;;;;;1.20;0.70;;;26.10;65.50;;;;;;4998900;28;20471;-90
2022/08/07 19:02:38;;;;;;;0.90;0.73;;;26.10;64.90;;;;;;4998454;28;20523;-91
2022/08/07 19:05:12;;;;;;;0.90;0.70;;;26.10;64.80;;;;;;4997769;28;20479;-91
2022/08/07 19:07:44;;;;;;;1.30;0.93;;;26.10;64.60;;;;;;4997686;28;20471;-90
2022/08/07 19:10:15;;;;;;;1.40;0.80;;;26.10;64.30;;;;;;4998413;28;20445;-91
2022/08/07 19:12:55;;;;;;;2.60;1.10;;;26.10;64.20;;;;;;4997489;28;20456;-93
2022/08/07 19:15:32;;;;;;;2.50;1.10;;;26.10;63.20;;;;;;4996697;28;20436;-94
2022/08/07 19:18:12;;;;;;;1.43;1.10;;;26.10;62.70;;;;;;4996905;28;21001;-93
2022/08/07 19:20:49;;;;;;;4.93;1.23;;;26.10;61.80;;;;;;4996679;28;20490;-92
2022/08/07 19:23:22;;;;;;;3.93;1.57;;;26.10;62.30;;;;;;5000960;28;20432;-92
2022/08/07 19:25:54;;;;;;;4.07;1.53;;;26.00;61.70;;;;;;4996207;28;20868;-92
2022/08/07 19:28:26;;;;;;;1.60;1.50;;;26.00;61.10;;;;;;4996767;28;20943;-92
2022/08/07 19:30:57;;;;;;;1.30;1.20;;;26.00;61.70;;;;;;4996364;28;20440;-93
2022/08/07 19:33:26;;;;;;;2.53;1.50;;;26.10;61.00;;;;;;4995661;28;21047;-93
2022/08/07 19:35:56;;;;;;;1.30;1.20;;;26.10;60.60;;;;;;4999701;28;20453;-92
2022/08/07 19:38:26;;;;;;;1.87;1.67;;;26.00;60.30;;;;;;4996742;28;20540;-92
2022/08/07 19:40:58;;;;;;;5.00;1.30;;;26.00;60.20;;;;;;4996178;28;20582;-92
2022/08/07 19:43:29;;;;;;;3.60;1.63;;;26.00;59.90;;;;;;4996115;28;20509;-92
2022/08/07 19:45:58;;;;;;;1.77;1.60;;;26.00;59.70;;;;;;4995836;28;20948;-92
2022/08/07 19:48:31;;;;;;;1.60;1.30;;;26.00;60.30;;;;;;4995962;28;20484;-92
2022/08/07 19:51:01;;;;;;;1.80;1.50;;;26.00;59.60;;;;;;4996583;28;20543;-92
2022/08/07 19:53:28;;;;;;;1.77;1.67;;;26.00;59.50;;;;;;4996818;28;20460;-93
2022/08/07 19:55:56;;;;;;;1.77;1.67;;;26.00;59.50;;;;;;4996378;28;20480;-92
2022/08/07 19:58:30;;;;;;;1.77;1.50;;;26.00;59.50;;;;;;4996333;28;20785;-92
2022/08/07 20:00:58;;;;;;;1.90;1.70;;;26.00;59.40;;;;;;4996114;28;20476;-92
2022/08/07 20:03:27;;;;;;;2.10;1.70;;;26.00;59.50;;;;;;4996019;28;20501;-92
2022/08/07 20:05:57;;;;;;;2.10;1.37;;;26.00;59.40;;;;;;4997147;28;20440;-92